createdAt,value
2022-12-26T00:03:16.988Z,62.80
2022-12-26T00:08:21.448Z,62.80
2022-12-26T00:13:38.471Z,62.90
2022-12-26T00:18:44.700Z,62.90
2022-12-26T00:23:49.365Z,63.00
2022-12-26T00:28:53.989Z,63.00
2022-12-26T00:33:57.236Z,63.00
2022-12-26T00:39:03.410Z,63.00
2022-12-26T00:44:06.563Z,63.00
2022-12-26T00:49:09.599Z,63.00
2022-12-26T00:54:13.928Z,63.00
2022-12-26T00:59:16.857Z,63.10
2022-12-26T01:04:19.748Z,63.10
2022-12-26T01:09:24.008Z,63.10
2022-12-26T01:14:26.962Z,63.10
2022-12-26T01:19:29.886Z,63.00
2022-12-26T01:24:34.208Z,63.10
2022-12-26T01:29:37.185Z,63.10
2022-12-26T01:34:40.479Z,63.20
2022-12-26T01:39:45.044Z,63.20
2022-12-26T01:45:05.249Z,63.20
2022-12-26T01:50:18.037Z,63.00
2022-12-26T01:55:23.290Z,63.00
2022-12-26T02:00:26.278Z,63.10
2022-12-26T02:05:36.850Z,63.20
2022-12-26T02:10:48.161Z,63.00
2022-12-26T02:15:51.118Z,63.10
2022-12-26T02:21:05.731Z,63.20
2022-12-26T02:26:30.230Z,63.10
2022-12-26T02:31:42.199Z,63.20
2022-12-26T02:36:58.181Z,63.20
2022-12-26T02:42:10.287Z,63.20
2022-12-26T02:47:22.219Z,63.20
2022-12-26T02:52:54.167Z,63.20
2022-12-26T02:58:23.187Z,63.10
2022-12-26T03:03:48.712Z,63.10
2022-12-26T03:09:13.919Z,63.10
2022-12-26T03:14:19.757Z,63.10
2022-12-26T03:19:29.102Z,63.00
2022-12-26T03:24:52.104Z,63.00
2022-12-26T03:30:12.493Z,63.00
2022-12-26T03:35:17.396Z,63.00
2022-12-26T03:40:56.659Z,63.00
2022-12-26T03:46:28.832Z,62.90
2022-12-26T03:51:54.182Z,62.80
2022-12-26T03:57:20.334Z,62.90
2022-12-26T04:02:48.019Z,62.90
2022-12-26T04:08:18.585Z,62.90
2022-12-26T04:13:44.706Z,62.80
2022-12-26T04:19:14.174Z,62.80
2022-12-26T04:24:43.724Z,62.90
2022-12-26T04:30:04.223Z,62.90
2022-12-26T04:35:30.101Z,63.10
2022-12-26T04:41:00.193Z,63.20
2022-12-26T04:46:04.102Z,63.20
2022-12-26T04:51:07.323Z,63.40
2022-12-26T04:56:12.926Z,63.30
2022-12-26T05:01:33.407Z,63.30
2022-12-26T05:06:53.865Z,63.20
2022-12-26T05:11:58.338Z,63.10
2022-12-26T05:17:19.362Z,63.00
2022-12-26T05:22:40.059Z,63.10
2022-12-26T05:28:03.190Z,63.10
2022-12-26T05:33:23.542Z,63.20
2022-12-26T05:38:26.517Z,63.20
2022-12-26T05:43:30.783Z,63.00
2022-12-26T05:48:33.794Z,62.90
2022-12-26T05:53:36.800Z,62.90
2022-12-26T05:58:41.733Z,62.80
2022-12-26T06:03:48.308Z,62.80
2022-12-26T06:08:53.070Z,62.60
2022-12-26T06:13:57.592Z,62.70
2022-12-26T06:19:00.538Z,62.70
2022-12-26T06:24:03.448Z,62.50
2022-12-26T06:29:07.765Z,62.40
2022-12-26T06:34:12.727Z,62.30
2022-12-26T06:39:15.797Z,62.10
2022-12-26T06:44:20.317Z,62.10
2022-12-26T06:49:32.166Z,62.00
2022-12-26T06:54:36.184Z,62.00
2022-12-26T06:59:40.535Z,62.10
2022-12-26T07:04:43.648Z,62.00
2022-12-26T07:09:46.675Z,62.10
2022-12-26T07:14:51.544Z,62.20
2022-12-26T07:19:55.039Z,63.00
2022-12-26T07:24:58.087Z,62.40
2022-12-26T07:30:02.533Z,62.40
2022-12-26T07:35:06.206Z,62.50
2022-12-26T07:40:10.701Z,62.60
2022-12-26T07:45:15.495Z,62.80
2022-12-26T07:50:18.654Z,62.90
2022-12-26T07:55:22.581Z,63.10
2022-12-26T08:00:26.999Z,63.20
2022-12-26T08:05:30.694Z,63.20
2022-12-26T08:10:33.720Z,63.10
2022-12-26T08:15:39.584Z,63.10
2022-12-26T08:20:42.579Z,63.00
2022-12-26T08:25:45.659Z,62.90
2022-12-26T08:30:50.742Z,63.00
2022-12-26T08:35:53.846Z,63.20
2022-12-26T08:40:57.337Z,63.20
2022-12-26T08:46:03.374Z,63.20
2022-12-26T08:51:09.581Z,63.50
2022-12-26T08:56:16.399Z,63.50
2022-12-26T09:01:23.354Z,63.50
2022-12-26T09:06:27.142Z,63.40
2022-12-26T09:11:30.651Z,63.40
2022-12-26T09:16:49.275Z,63.60
2022-12-26T09:22:13.940Z,63.70
2022-12-26T09:27:16.974Z,63.60
2022-12-26T09:32:21.343Z,63.90
2022-12-26T09:37:24.344Z,64.20
2022-12-26T09:42:36.010Z,64.50
2022-12-26T09:47:49.738Z,65.50
2022-12-26T09:52:56.645Z,65.60
2022-12-26T09:58:05.429Z,64.80
2022-12-26T10:03:12.858Z,64.90
2022-12-26T10:08:28.197Z,65.00
2022-12-26T10:13:38.221Z,64.90
2022-12-26T10:18:56.175Z,65.00
2022-12-26T10:24:03.083Z,65.00
2022-12-26T10:29:17.067Z,64.80
2022-12-26T10:34:24.885Z,64.90
2022-12-26T10:39:32.938Z,64.80
2022-12-26T10:44:35.929Z,64.70
2022-12-26T10:49:40.270Z,64.60
2022-12-26T10:54:43.389Z,64.40
2022-12-26T10:59:49.213Z,64.30
2022-12-26T11:05:21.832Z,64.20
2022-12-26T11:10:32.102Z,64.10
2022-12-26T11:15:38.599Z,64.10
2022-12-26T11:20:43.371Z,63.90
2022-12-26T11:25:51.752Z,63.80
2022-12-26T11:30:55.401Z,63.60
2022-12-26T11:36:06.884Z,63.40
2022-12-26T11:41:30.176Z,63.30
2022-12-26T11:46:37.855Z,63.10
2022-12-26T11:51:46.359Z,63.20
2022-12-26T11:56:50.595Z,62.90
2022-12-26T12:02:32.524Z,62.80
2022-12-26T12:07:55.689Z,62.90
2022-12-26T12:13:07.980Z,62.70
2022-12-26T12:18:20.919Z,62.60
2022-12-26T12:23:41.858Z,62.80
2022-12-26T12:29:06.645Z,62.60
2022-12-26T12:34:19.603Z,62.70
2022-12-26T12:39:36.613Z,62.70
2022-12-26T12:44:58.620Z,63.00
2022-12-26T12:50:13.592Z,63.10
2022-12-26T12:55:28.519Z,63.20
2022-12-26T13:00:39.522Z,63.30
2022-12-26T13:05:47.797Z,63.30
2022-12-26T13:10:55.612Z,63.30
2022-12-26T13:16:06.203Z,63.30
2022-12-26T13:21:13.186Z,63.20
2022-12-26T13:26:20.015Z,63.20
2022-12-26T13:31:23.284Z,63.10
2022-12-26T13:36:37.130Z,63.00
2022-12-26T13:42:05.712Z,63.00
2022-12-26T13:47:33.898Z,62.90
2022-12-26T13:52:41.227Z,63.00
2022-12-26T13:57:47.431Z,62.90
2022-12-26T14:03:27.560Z,62.80
2022-12-26T14:08:39.434Z,62.80
2022-12-26T14:14:04.473Z,62.60
2022-12-26T14:19:26.779Z,62.40
2022-12-26T14:24:38.560Z,62.40
2022-12-26T14:29:50.571Z,62.30
2022-12-26T14:35:03.970Z,62.30
2022-12-26T14:40:26.557Z,62.20
2022-12-26T14:45:44.153Z,62.10
2022-12-26T14:50:48.933Z,62.10
2022-12-26T14:55:54.431Z,62.20
2022-12-26T15:01:34.196Z,62.10
2022-12-26T15:07:20.535Z,61.80
2022-12-26T15:13:02.710Z,61.80
2022-12-26T15:18:42.938Z,61.70
2022-12-26T15:24:22.823Z,61.60
2022-12-26T15:29:54.135Z,61.60
2022-12-26T15:35:13.147Z,61.60
2022-12-26T15:40:23.865Z,61.40
2022-12-26T15:45:39.112Z,61.30
2022-12-26T15:50:54.218Z,61.50
2022-12-26T15:56:16.330Z,61.50
2022-12-26T16:01:38.664Z,61.40
2022-12-26T16:07:01.343Z,61.50
2022-12-26T16:12:20.944Z,61.60
2022-12-26T16:17:24.282Z,61.70
2022-12-26T16:22:47.297Z,60.30
2022-12-26T16:27:56.100Z,59.10
2022-12-26T16:33:00.192Z,59.40
2022-12-26T16:38:06.163Z,59.80
2022-12-26T16:43:26.293Z,60.40
2022-12-26T16:48:31.809Z,60.90
2022-12-26T16:53:45.731Z,61.00
2022-12-26T16:58:53.622Z,61.40
2022-12-26T17:03:59.407Z,61.50
2022-12-26T17:09:07.963Z,61.60
2022-12-26T17:14:21.007Z,61.80
2022-12-26T17:19:28.856Z,62.00
2022-12-26T17:24:31.870Z,62.00
2022-12-26T17:29:49.220Z,62.40
2022-12-26T17:34:52.323Z,62.50
2022-12-26T17:40:03.056Z,62.40
2022-12-26T17:45:10.756Z,62.60
2022-12-26T17:50:13.915Z,62.80
2022-12-26T17:55:19.820Z,62.80
2022-12-26T18:00:26.601Z,62.80
2022-12-26T18:05:29.676Z,63.00
2022-12-26T18:10:35.928Z,62.90
2022-12-26T18:15:40.293Z,63.00
2022-12-26T18:20:43.220Z,63.00
2022-12-26T18:25:49.197Z,62.90
2022-12-26T18:30:58.172Z,63.60
2022-12-26T18:36:07.237Z,63.00
2022-12-26T18:41:15.559Z,62.80
2022-12-26T18:46:24.822Z,62.70
2022-12-26T18:51:28.746Z,62.70
2022-12-26T18:56:31.666Z,62.60
2022-12-26T19:01:36.112Z,62.40
2022-12-26T19:06:39.111Z,62.40
2022-12-26T19:11:42.927Z,63.20
2022-12-26T19:16:47.861Z,62.50
2022-12-26T19:21:51.158Z,62.40
2022-12-26T19:26:54.432Z,62.20
2022-12-26T19:31:58.792Z,62.10
2022-12-26T19:37:01.788Z,62.00
2022-12-26T19:42:04.839Z,62.00
2022-12-26T19:47:11.381Z,61.70
2022-12-26T19:52:15.319Z,61.30
2022-12-26T19:57:18.328Z,61.00
2022-12-26T20:02:22.783Z,60.80
2022-12-26T20:07:25.861Z,60.60
2022-12-26T20:12:28.949Z,60.10
2022-12-26T20:17:33.591Z,59.80
2022-12-26T20:22:36.523Z,59.30
2022-12-26T20:27:40.794Z,58.90
2022-12-26T20:32:47.259Z,59.10
2022-12-26T20:37:50.220Z,58.90
2022-12-26T20:42:53.287Z,59.00
2022-12-26T20:47:57.719Z,58.90
2022-12-26T20:53:00.616Z,58.70
2022-12-26T20:58:03.517Z,58.70
2022-12-26T21:03:07.828Z,58.60
2022-12-26T21:08:10.760Z,58.40
2022-12-26T21:13:14.024Z,58.60
2022-12-26T21:18:18.320Z,58.50
2022-12-26T21:23:21.331Z,58.60
2022-12-26T21:28:24.256Z,58.60
2022-12-26T21:33:30.193Z,58.70
2022-12-26T21:38:33.096Z,58.80
2022-12-26T21:43:36.279Z,58.80
2022-12-26T21:48:46.916Z,58.80
2022-12-26T21:53:50.632Z,58.80
2022-12-26T21:59:10.924Z,58.70
2022-12-26T22:04:21.050Z,58.80
2022-12-26T22:09:24.949Z,58.80
2022-12-26T22:14:27.925Z,58.90
2022-12-26T22:19:32.259Z,59.00
2022-12-26T22:24:35.176Z,59.00
2022-12-26T22:29:38.101Z,59.00
2022-12-26T22:34:43.556Z,59.00
2022-12-26T22:39:46.436Z,58.90
2022-12-26T22:44:49.380Z,58.90
2022-12-26T22:49:54.044Z,58.90
2022-12-26T22:54:57.010Z,58.90
2022-12-26T23:00:09.064Z,59.00
2022-12-26T23:05:15.824Z,59.00
2022-12-26T23:10:22.520Z,58.90
2022-12-26T23:15:27.988Z,59.30
2022-12-26T23:20:54.691Z,59.10
2022-12-26T23:26:00.795Z,59.00
2022-12-26T23:31:04.383Z,59.00
2022-12-26T23:36:09.533Z,59.00
2022-12-26T23:41:12.430Z,59.00
2022-12-26T23:46:15.377Z,59.00
2022-12-26T23:51:20.605Z,59.10
2022-12-26T23:56:27.620Z,59.10
